Time;durP1;ratioP1;P1;durP2;ratioP2;P2;SDS_P1;SDS_P2;PMS_P1;PMS_P2;Temp;Humidity;BMP_temperature;BMP_pressure;BME280_temperature;BME280_humidity;BME280_pressure;Samples;Min_cycle;Max_cycle;Signal;HPM_P1;HPM_P2
2023/08/30 00:00:22;;;;;;;0.50;0.50;;;14.20;99.90;;;;;;5095493;28;20075;-81
2023/08/30 00:02:48;;;;;;;0.68;0.50;;;14.20;99.90;;;;;;5095474;28;20028;-81
2023/08/30 00:05:14;;;;;;;0.70;0.70;;;14.20;99.90;;;;;;5095429;28;20105;-81
2023/08/30 00:07:40;;;;;;;0.40;0.40;;;14.00;99.90;;;;;;5095261;28;20044;-81
2023/08/30 00:10:10;;;;;;;0.47;0.47;;;14.00;99.90;;;;;;5095654;28;20040;-81
2023/08/30 00:12:36;;;;;;;0.32;0.32;;;13.90;99.90;;;;;;5094868;28;20036;-81
2023/08/30 00:15:01;;;;;;;0.50;0.50;;;13.90;99.90;;;;;;5094024;28;20096;-81
2023/08/30 00:17:27;;;;;;;0.40;0.40;;;13.80;99.90;;;;;;5095173;28;20040;-81
2023/08/30 00:19:54;;;;;;;0.40;0.40;;;13.80;99.90;;;;;;5095109;28;20040;-81
2023/08/30 00:22:21;;;;;;;0.68;0.68;;;13.80;99.90;;;;;;5095047;28;20048;-81
2023/08/30 00:24:47;;;;;;;1.75;0.60;;;14.30;99.90;;;;;;5095168;28;20052;-81
2023/08/30 00:27:12;;;;;;;0.40;0.40;;;13.80;99.90;;;;;;5094960;28;20043;-81
2023/08/30 00:29:38;;;;;;;0.40;0.40;;;13.80;99.90;;;;;;5095027;28;20039;-81
2023/08/30 00:32:04;;;;;;;0.60;0.60;;;13.70;99.90;;;;;;5093946;28;20043;-81
2023/08/30 00:34:29;;;;;;;1.50;0.40;;;13.70;99.90;;;;;;5094836;28;20036;-81
2023/08/30 00:36:55;;;;;;;0.55;0.55;;;13.70;99.90;;;;;;5094794;28;20468;-81
2023/08/30 00:39:21;;;;;;;0.40;0.40;;;13.60;99.90;;;;;;5094721;28;20043;-81
2023/08/30 00:41:46;;;;;;;0.73;0.40;;;13.60;99.90;;;;;;5095101;28;20534;-81
2023/08/30 00:44:12;;;;;;;2.03;0.90;;;13.60;99.90;;;;;;5094684;28;20502;-81
2023/08/30 00:46:38;;;;;;;0.43;0.43;;;13.60;99.90;;;;;;5094702;28;20101;-81
2023/08/30 00:49:04;;;;;;;0.50;0.50;;;13.50;99.90;;;;;;5094524;28;20043;-81
2023/08/30 00:51:30;;;;;;;0.60;0.60;;;13.50;99.90;;;;;;5094489;28;20464;-81
2023/08/30 00:53:58;;;;;;;1.30;0.73;;;13.60;99.90;;;;;;5094422;28;20044;-80
2023/08/30 00:56:23;;;;;;;0.77;0.77;;;13.50;99.90;;;;;;5094819;28;20044;-81
2023/08/30 00:58:50;;;;;;;0.53;0.53;;;13.50;99.90;;;;;;5094424;28;20088;-81
2023/08/30 01:01:18;;;;;;;0.40;0.40;;;13.50;99.90;;;;;;5094437;28;20040;-80
2023/08/30 01:03:44;;;;;;;0.75;0.75;;;13.40;99.90;;;;;;5094329;28;20040;-81
2023/08/30 01:06:09;;;;;;;0.50;0.50;;;13.40;99.90;;;;;;5094694;28;20160;-81
2023/08/30 01:08:37;;;;;;;0.47;0.47;;;13.40;99.90;;;;;;5094406;28;20052;-81
2023/08/30 01:11:25;;;;;;;0.40;0.40;;;13.40;99.90;;;;;;5094105;28;20046;-81
2023/08/30 01:13:58;;;;;;;0.40;0.40;;;13.40;99.90;;;;;;5094163;28;20043;-81
2023/08/30 01:16:25;;;;;;;0.50;0.50;;;13.40;99.90;;;;;;5094053;28;20044;-81
2023/08/30 01:18:55;;;;;;;0.30;0.30;;;13.40;99.90;;;;;;5094103;28;20044;-81
2023/08/30 01:21:41;;;;;;;0.57;0.57;;;13.40;99.90;;;;;;5094139;28;20079;-80
2023/08/30 01:24:14;;;;;;;1.17;0.80;;;13.40;99.90;;;;;;5092695;28;20148;-80
2023/08/30 01:26:48;;;;;;;0.35;0.35;;;13.30;99.90;;;;;;5093985;28;20043;-81
2023/08/30 01:29:16;;;;;;;0.57;0.57;;;13.30;99.90;;;;;;5094044;28;20043;-81
2023/08/30 01:31:43;;;;;;;0.77;0.77;;;13.30;99.90;;;;;;5093969;28;20036;-81
2023/08/30 01:34:09;;;;;;;0.50;0.50;;;13.20;99.90;;;;;;5093927;28;20379;-80
2023/08/30 01:36:36;;;;;;;0.80;0.80;;;13.20;99.90;;;;;;5093917;28;20422;-80
2023/08/30 01:39:03;;;;;;;0.40;0.40;;;13.20;99.90;;;;;;5093896;28;20044;-80
2023/08/30 01:41:31;;;;;;;0.98;0.88;;;13.10;99.90;;;;;;5093740;28;20083;-80
2023/08/30 01:43:59;;;;;;;0.40;0.40;;;13.10;99.90;;;;;;5093831;28;20044;-80
2023/08/30 01:46:25;;;;;;;0.52;0.50;;;13.30;99.90;;;;;;5094130;28;20071;-81
2023/08/30 01:48:51;;;;;;;0.93;0.85;;;13.00;99.90;;;;;;5093732;28;20038;-81
2023/08/30 01:51:17;;;;;;;0.40;0.40;;;13.00;99.90;;;;;;5092560;28;20035;-81
2023/08/30 01:53:46;;;;;;;0.77;0.77;;;12.90;99.90;;;;;;5094033;28;20414;-81
2023/08/30 01:56:12;;;;;;;0.40;0.40;;;12.90;99.90;;;;;;5093632;28;20139;-81
2023/08/30 01:58:38;;;;;;;0.57;0.57;;;12.90;99.90;;;;;;5094283;28;20515;-81
2023/08/30 02:01:03;;;;;;;0.88;0.85;;;12.80;99.90;;;;;;5094105;28;20418;-81
2023/08/30 02:03:29;;;;;;;0.47;0.47;;;12.80;99.90;;;;;;5093577;28;20044;-81
2023/08/30 02:06:11;;;;;;;0.60;0.60;;;12.80;99.90;;;;;;5092622;28;20468;-81
2023/08/30 02:09:14;;;;;;;0.60;0.60;;;12.80;99.90;;;;;;5093496;28;20132;-80
2023/08/30 02:11:43;;;;;;;0.40;0.40;;;12.70;99.90;;;;;;5091421;28;20353;-80
2023/08/30 02:14:11;;;;;;;0.50;0.50;;;12.70;99.90;;;;;;5093513;28;20082;-80
2023/08/30 02:16:38;;;;;;;0.73;0.63;;;12.70;99.90;;;;;;5093437;28;20089;-80
2023/08/30 02:19:06;;;;;;;0.40;0.40;;;12.60;99.90;;;;;;5093357;28;20417;-80
2023/08/30 02:21:32;;;;;;;0.50;0.50;;;12.60;99.90;;;;;;5092245;28;20047;-80
2023/08/30 02:23:57;;;;;;;0.60;0.60;;;12.50;99.90;;;;;;5093512;28;20036;-80
2023/08/30 02:26:23;;;;;;;0.40;0.40;;;12.50;99.90;;;;;;5093573;28;20048;-80
2023/08/30 02:28:49;;;;;;;0.60;0.60;;;12.50;99.90;;;;;;5092464;28;20042;-80
2023/08/30 02:31:14;;;;;;;0.50;0.50;;;12.50;99.90;;;;;;5093315;28;20036;-80
2023/08/30 02:33:40;;;;;;;0.50;0.50;;;12.50;99.90;;;;;;5093202;28;20040;-81
2023/08/30 02:36:06;;;;;;;0.87;0.60;;;12.40;99.90;;;;;;5094368;28;20089;-81
2023/08/30 02:38:34;;;;;;;0.50;0.50;;;12.40;99.90;;;;;;5097105;28;20107;-81
2023/08/30 02:41:00;;;;;;;0.50;0.50;;;12.30;99.90;;;;;;5096967;28;20040;-81
2023/08/30 02:43:25;;;;;;;0.50;0.50;;;12.30;99.90;;;;;;5097301;28;20120;-81
2023/08/30 02:45:52;;;;;;;0.60;0.60;;;12.30;99.90;;;;;;5097142;28;20036;-80
2023/08/30 02:48:17;;;;;;;0.40;0.40;;;12.20;99.90;;;;;;5096617;28;20499;-82
2023/08/30 02:50:43;;;;;;;0.60;0.60;;;12.20;99.90;;;;;;5096552;28;20082;-82
2023/08/30 02:53:09;;;;;;;0.53;0.53;;;12.30;99.90;;;;;;5097102;28;20036;-81
2023/08/30 02:55:35;;;;;;;0.60;0.60;;;12.10;99.90;;;;;;5097025;28;20040;-81
2023/08/30 02:58:01;;;;;;;0.40;0.40;;;12.10;99.90;;;;;;5096738;28;20410;-81
2023/08/30 03:00:26;;;;;;;0.60;0.60;;;12.10;99.90;;;;;;5095702;28;20285;-82
2023/08/30 03:02:52;;;;;;;0.75;0.70;;;12.00;99.90;;;;;;5096623;28;20040;-81
2023/08/30 03:05:18;;;;;;;0.50;0.50;;;12.20;99.90;;;;;;5096644;28;20478;-82
2023/08/30 03:07:44;;;;;;;0.50;0.50;;;12.00;99.90;;;;;;5096502;28;20472;-81
2023/08/30 03:10:11;;;;;;;0.70;0.70;;;12.00;99.90;;;;;;5096441;28;20098;-81
2023/08/30 03:12:37;;;;;;;0.50;0.50;;;12.00;99.90;;;;;;5096473;28;20054;-81
2023/08/30 03:15:04;;;;;;;0.70;0.60;;;12.00;99.90;;;;;;5096416;28;20040;-81
2023/08/30 03:17:30;;;;;;;0.60;0.60;;;12.00;99.90;;;;;;5096331;28;20455;-81
2023/08/30 03:19:55;;;;;;;0.80;0.65;;;12.00;99.90;;;;;;5095127;28;20082;-81
2023/08/30 03:22:21;;;;;;;0.47;0.47;;;12.00;99.90;;;;;;5096197;28;20044;-81
2023/08/30 03:24:47;;;;;;;0.47;0.47;;;12.00;99.90;;;;;;5096196;28;20124;-81
2023/08/30 03:27:12;;;;;;;0.65;0.65;;;12.00;99.90;;;;;;5096196;28;20051;-81
2023/08/30 03:29:38;;;;;;;0.50;0.50;;;12.00;99.90;;;;;;5096169;28;20071;-81
2023/08/30 03:32:04;;;;;;;0.53;0.53;;;12.00;99.90;;;;;;5095895;28;20084;-81
2023/08/30 03:34:30;;;;;;;0.50;0.50;;;12.00;99.90;;;;;;5095085;28;20040;-81
2023/08/30 03:36:55;;;;;;;1.10;0.75;;;12.10;99.90;;;;;;5096186;28;20876;-81
2023/08/30 03:39:21;;;;;;;0.50;0.50;;;12.40;99.90;;;;;;5096128;28;20076;-81
2023/08/30 03:41:47;;;;;;;0.70;0.67;;;12.10;99.90;;;;;;5096308;28;20055;-81
2023/08/30 03:44:13;;;;;;;1.00;0.82;;;12.10;99.90;;;;;;5096037;28;20468;-81
2023/08/30 03:46:38;;;;;;;0.50;0.50;;;12.10;99.90;;;;;;5095588;28;20044;-81
2023/08/30 03:49:04;;;;;;;0.80;0.80;;;12.10;99.90;;;;;;5095096;28;20051;-81
2023/08/30 03:51:30;;;;;;;0.55;0.55;;;12.10;99.90;;;;;;5095879;28;20039;-81
2023/08/30 03:53:58;;;;;;;0.50;0.50;;;12.10;99.90;;;;;;5095994;28;20047;-81
2023/08/30 03:56:24;;;;;;;0.75;0.70;;;12.00;99.90;;;;;;5095863;28;20119;-81
2023/08/30 03:58:50;;;;;;;0.60;0.60;;;12.00;99.90;;;;;;5095772;28;20123;-81
2023/08/30 04:01:15;;;;;;;1.27;0.60;;;12.00;99.90;;;;;;5094378;28;20040;-81
2023/08/30 04:03:41;;;;;;;0.57;0.50;;;11.90;99.90;;;;;;5095389;28;20491;-81
2023/08/30 04:06:07;;;;;;;0.70;0.68;;;11.90;99.90;;;;;;5095400;28;20055;-81
2023/08/30 04:08:32;;;;;;;0.80;0.80;;;11.90;99.90;;;;;;5095034;28;20047;-82
2023/08/30 04:10:58;;;;;;;1.08;0.73;;;11.90;99.90;;;;;;5095123;28;20490;-82
2023/08/30 04:13:24;;;;;;;0.70;0.70;;;11.80;99.90;;;;;;5095444;28;20127;-81
2023/08/30 04:15:51;;;;;;;0.43;0.43;;;11.80;99.90;;;;;;5095252;28;20075;-81
2023/08/30 04:18:16;;;;;;;1.02;0.93;;;11.80;99.90;;;;;;5095133;28;20071;-81
2023/08/30 04:20:46;;;;;;;0.63;0.63;;;11.80;99.90;;;;;;5095117;28;20423;-81
2023/08/30 04:23:12;;;;;;;0.50;0.50;;;11.80;99.90;;;;;;5095656;28;20036;-81
2023/08/30 04:25:38;;;;;;;0.40;0.40;;;11.80;99.90;;;;;;5095606;28;20044;-81
2023/08/30 04:28:04;;;;;;;1.20;0.65;;;11.80;99.90;;;;;;5095020;28;20182;-81
2023/08/30 04:30:30;;;;;;;0.60;0.60;;;11.90;99.90;;;;;;5094815;28;20039;-81
2023/08/30 04:32:55;;;;;;;0.55;0.55;;;11.90;99.90;;;;;;5094736;28;20483;-81
2023/08/30 04:35:21;;;;;;;0.73;0.73;;;11.90;99.90;;;;;;5093761;28;20040;-81
2023/08/30 04:37:48;;;;;;;0.55;0.55;;;11.90;99.90;;;;;;5094760;28;20193;-81
2023/08/30 04:40:14;;;;;;;0.50;0.50;;;11.90;99.90;;;;;;5094385;28;20404;-81
2023/08/30 04:42:40;;;;;;;0.97;0.50;;;11.90;99.90;;;;;;5094735;28;20075;-81
2023/08/30 04:45:07;;;;;;;0.70;0.70;;;12.00;99.90;;;;;;5094609;28;20032;-81
2023/08/30 04:47:33;;;;;;;1.05;0.90;;;12.00;99.90;;;;;;5094440;28;20044;-81
2023/08/30 04:49:59;;;;;;;0.60;0.60;;;12.00;99.90;;;;;;5094517;28;20478;-81
2023/08/30 04:52:25;;;;;;;0.50;0.50;;;12.00;99.90;;;;;;5094482;28;20040;-81
2023/08/30 04:54:51;;;;;;;0.98;0.80;;;12.00;99.90;;;;;;5094593;28;20071;-81
2023/08/30 04:57:17;;;;;;;0.60;0.60;;;12.10;99.90;;;;;;5094430;28;20078;-81
2023/08/30 04:59:43;;;;;;;0.60;0.60;;;12.00;99.90;;;;;;5094395;28;20046;-81
2023/08/30 05:02:09;;;;;;;1.00;0.90;;;12.00;99.90;;;;;;5094265;28;20660;-81
2023/08/30 05:04:35;;;;;;;0.50;0.50;;;12.00;99.90;;;;;;5094365;28;20093;-81
2023/08/30 05:07:01;;;;;;;0.87;0.83;;;12.10;99.90;;;;;;5093921;28;20044;-81
2023/08/30 05:09:27;;;;;;;0.60;0.60;;;12.00;99.90;;;;;;5094571;28;20067;-81
2023/08/30 05:11:53;;;;;;;0.77;0.77;;;12.00;99.90;;;;;;5093804;28;20028;-81
2023/08/30 05:14:19;;;;;;;0.50;0.50;;;12.00;99.90;;;;;;5094382;28;20055;-81
2023/08/30 05:16:45;;;;;;;0.70;0.70;;;12.00;99.90;;;;;;5092972;28;20047;-81
2023/08/30 05:19:11;;;;;;;0.50;0.50;;;12.10;99.90;;;;;;5094067;28;20372;-81
2023/08/30 05:21:37;;;;;;;0.80;0.70;;;12.10;99.90;;;;;;5094157;28;20036;-81
2023/08/30 05:24:05;;;;;;;1.13;1.03;;;12.10;99.90;;;;;;5094345;28;20048;-81
2023/08/30 05:26:31;;;;;;;1.52;0.75;;;12.20;99.90;;;;;;5093912;28;20039;-81
2023/08/30 05:28:56;;;;;;;0.40;0.40;;;12.20;99.90;;;;;;5093944;28;20044;-81
2023/08/30 05:31:22;;;;;;;0.77;0.77;;;12.20;99.90;;;;;;5093761;28;20047;-82
2023/08/30 05:33:47;;;;;;;0.73;0.70;;;12.30;99.90;;;;;;5094201;28;20459;-81
2023/08/30 05:36:13;;;;;;;0.70;0.70;;;12.60;99.90;;;;;;5093861;28;20098;-81
2023/08/30 05:38:39;;;;;;;1.00;0.90;;;12.40;99.90;;;;;;5093951;28;20046;-81
2023/08/30 05:41:04;;;;;;;0.73;0.73;;;12.40;99.90;;;;;;5092740;28;20518;-81
2023/08/30 05:43:31;;;;;;;0.50;0.50;;;12.40;99.90;;;;;;5093752;28;20426;-81
2023/08/30 05:46:01;;;;;;;0.95;0.70;;;12.50;99.90;;;;;;5093915;28;20044;-82
2023/08/30 05:48:27;;;;;;;0.50;0.50;;;12.50;99.90;;;;;;5092657;28;20067;-81
2023/08/30 05:50:52;;;;;;;0.60;0.60;;;12.70;99.90;;;;;;5093790;28;20032;-81
2023/08/30 05:53:18;;;;;;;0.47;0.47;;;12.60;99.90;;;;;;5093823;28;20066;-81
2023/08/30 05:55:44;;;;;;;1.45;0.70;;;12.60;99.90;;;;;;5093640;28;20145;-81
2023/08/30 05:58:09;;;;;;;0.95;0.65;;;12.70;99.90;;;;;;5093705;28;20123;-81
2023/08/30 06:00:35;;;;;;;0.70;0.70;;;12.70;99.90;;;;;;5093395;28;20163;-81
2023/08/30 06:03:01;;;;;;;1.85;0.80;;;12.70;99.90;;;;;;5093674;28;20368;-81
2023/08/30 06:05:27;;;;;;;0.83;0.80;;;12.80;99.90;;;;;;5093557;28;20108;-81
2023/08/30 06:07:53;;;;;;;0.55;0.55;;;12.80;99.90;;;;;;5093406;28;20415;-81
2023/08/30 06:10:19;;;;;;;0.77;0.52;;;12.90;99.90;;;;;;5093972;28;20036;-81
2023/08/30 06:12:45;;;;;;;0.80;0.75;;;12.90;99.90;;;;;;5097676;28;20081;-81
2023/08/30 06:15:10;;;;;;;1.15;1.10;;;13.00;99.90;;;;;;5097507;28;20082;-81
2023/08/30 06:17:36;;;;;;;0.77;0.73;;;13.00;99.90;;;;;;5098038;28;20407;-81
2023/08/30 06:20:02;;;;;;;0.95;0.63;;;13.10;99.90;;;;;;5097520;28;20046;-81
2023/08/30 06:22:28;;;;;;;0.70;0.70;;;13.10;99.90;;;;;;5097445;28;20040;-81
2023/08/30 06:24:54;;;;;;;1.05;0.93;;;13.10;99.90;;;;;;5097466;28;20426;-81
2023/08/30 06:27:20;;;;;;;1.90;1.00;;;13.10;99.90;;;;;;5097362;28;20417;-81
2023/08/30 06:29:46;;;;;;;1.20;1.02;;;13.20;99.90;;;;;;5097302;28;20075;-81
2023/08/30 06:32:11;;;;;;;1.05;0.82;;;13.20;99.90;;;;;;5097244;28;20098;-81
2023/08/30 06:34:37;;;;;;;2.00;1.00;;;13.20;99.90;;;;;;5095977;28;20060;-81
2023/08/30 06:37:03;;;;;;;0.50;0.50;;;13.30;99.90;;;;;;5097241;28;20127;-81
2023/08/30 06:39:36;;;;;;;0.60;0.60;;;13.30;99.90;;;;;;5097080;28;20431;-81
2023/08/30 06:42:02;;;;;;;1.27;0.80;;;13.40;99.90;;;;;;5097060;28;20040;-81
2023/08/30 06:44:29;;;;;;;0.70;0.70;;;13.50;99.90;;;;;;5097118;28;20086;-81
2023/08/30 06:46:57;;;;;;;0.50;0.50;;;13.50;99.90;;;;;;5096929;28;20047;-81
2023/08/30 06:49:24;;;;;;;0.68;0.60;;;13.60;99.90;;;;;;5096889;28;20028;-81
2023/08/30 06:51:49;;;;;;;0.63;0.63;;;13.70;99.90;;;;;;5096851;28;20039;-81
2023/08/30 06:54:15;;;;;;;1.38;0.88;;;13.80;99.90;;;;;;5097050;28;20036;-82
2023/08/30 06:56:40;;;;;;;0.60;0.60;;;13.70;99.90;;;;;;5096838;28;20040;-81
2023/08/30 06:59:06;;;;;;;0.63;0.60;;;13.90;99.90;;;;;;5096769;28;20039;-81
2023/08/30 07:01:32;;;;;;;0.88;0.88;;;14.00;99.90;;;;;;5096752;28;20040;-81
2023/08/30 07:03:57;;;;;;;1.02;0.80;;;14.00;99.90;;;;;;5096633;28;20040;-81
2023/08/30 07:06:24;;;;;;;0.88;0.75;;;14.10;99.90;;;;;;5078855;28;20043;-81
2023/08/30 07:08:49;;;;;;;1.30;1.20;;;14.20;99.90;;;;;;5096506;28;20064;-81
2023/08/30 07:11:15;;;;;;;1.23;0.82;;;14.30;99.90;;;;;;5096734;28;20140;-81
2023/08/30 07:13:40;;;;;;;1.73;1.05;;;14.40;99.90;;;;;;5096355;28;20036;-81
2023/08/30 07:16:06;;;;;;;1.42;1.13;;;14.50;99.90;;;;;;5096422;28;20478;-81
2023/08/30 07:18:32;;;;;;;0.77;0.77;;;14.80;99.90;;;;;;5095658;28;20079;-81
2023/08/30 07:20:57;;;;;;;0.70;0.70;;;14.80;99.90;;;;;;5096359;28;20047;-81
2023/08/30 07:23:23;;;;;;;0.67;0.63;;;15.40;99.90;;;;;;5095044;28;20040;-81
2023/08/30 07:25:51;;;;;;;1.23;1.03;;;15.20;99.90;;;;;;5095192;28;20456;-82
2023/08/30 07:28:16;;;;;;;0.80;0.80;;;15.30;99.90;;;;;;5096267;28;20047;-81
2023/08/30 07:30:42;;;;;;;1.07;0.87;;;15.40;99.90;;;;;;5094789;28;20044;-81
2023/08/30 07:33:07;;;;;;;3.97;1.67;;;15.50;99.90;;;;;;5096164;28;20174;-81
2023/08/30 07:35:33;;;;;;;1.23;0.77;;;15.50;99.90;;;;;;5096034;28;20066;-81
2023/08/30 07:37:59;;;;;;;1.42;0.77;;;15.60;99.90;;;;;;5095986;28;20043;-82
2023/08/30 07:40:26;;;;;;;0.80;0.80;;;15.60;99.90;;;;;;5095819;28;20054;-82
2023/08/30 07:42:52;;;;;;;1.75;0.60;;;15.60;99.90;;;;;;5095928;28;20054;-82
2023/08/30 07:45:18;;;;;;;2.75;1.38;;;15.60;99.90;;;;;;5095773;28;20031;-82
2023/08/30 07:47:43;;;;;;;0.77;0.77;;;15.60;99.90;;;;;;5094813;28;20055;-82
2023/08/30 07:50:09;;;;;;;0.47;0.47;;;15.70;99.90;;;;;;5095749;28;20078;-81
2023/08/30 07:52:35;;;;;;;1.07;0.60;;;15.70;99.90;;;;;;5094503;28;20044;-81
2023/08/30 07:55:01;;;;;;;0.50;0.50;;;15.80;99.90;;;;;;5095708;28;20053;-82
2023/08/30 07:57:27;;;;;;;0.57;0.57;;;15.80;99.90;;;;;;5095614;28;20060;-82
2023/08/30 07:59:53;;;;;;;0.50;0.50;;;15.90;99.90;;;;;;5095704;28;20044;-82
2023/08/30 08:02:18;;;;;;;1.67;1.23;;;15.80;99.90;;;;;;5095553;28;20682;-82
2023/08/30 08:04:44;;;;;;;0.60;0.60;;;15.80;99.90;;;;;;5095892;28;20047;-82
2023/08/30 08:07:09;;;;;;;1.27;1.02;;;16.00;99.90;;;;;;5095298;28;20055;-81
2023/08/30 08:09:35;;;;;;;0.70;0.70;;;16.20;99.90;;;;;;5095481;28;20032;-82
2023/08/30 08:12:01;;;;;;;0.77;0.77;;;16.30;99.90;;;;;;5095057;28;20039;-82
2023/08/30 08:14:26;;;;;;;2.67;0.80;;;16.50;99.90;;;;;;5095183;28;20039;-81
2023/08/30 08:16:52;;;;;;;1.33;1.07;;;16.70;99.90;;;;;;5094052;28;20075;-81
2023/08/30 08:19:19;;;;;;;1.13;1.00;;;17.00;99.90;;;;;;5095295;28;20040;-82
2023/08/30 08:21:45;;;;;;;1.13;0.73;;;17.20;99.90;;;;;;5095454;28;20043;-82
2023/08/30 08:24:10;;;;;;;1.10;0.80;;;17.40;99.90;;;;;;5095135;28;20036;-81
2023/08/30 08:26:36;;;;;;;1.07;1.00;;;17.50;99.90;;;;;;5095028;28;20204;-81
2023/08/30 08:29:03;;;;;;;1.13;1.00;;;17.60;99.90;;;;;;5094937;28;20455;-81
2023/08/30 08:31:28;;;;;;;;;;;17.70;99.90;;;;;;5095628;28;20040;-81
2023/08/30 08:34:11;;;;;;;0.88;0.73;;;17.70;99.90;;;;;;5094498;28;20425;-82
2023/08/30 08:36:38;;;;;;;0.80;0.80;;;17.60;99.90;;;;;;5094915;28;20044;-82
2023/08/30 08:39:04;;;;;;;;;;;17.50;99.90;;;;;;5095182;28;20036;-82
2023/08/30 08:41:41;;;;;;;0.60;0.60;;;17.50;99.90;;;;;;5094438;28;20372;-82
2023/08/30 08:44:08;;;;;;;;;;;17.40;99.90;;;;;;5095224;28;20127;-82
2023/08/30 08:46:38;;;;;;;1.20;0.68;;;17.40;99.90;;;;;;5094637;28;19923;-82
2023/08/30 08:49:17;;;;;;;0.98;0.80;;;17.30;99.90;;;;;;5095004;28;20040;-82
2023/08/30 08:51:45;;;;;;;0.65;0.60;;;17.20;99.90;;;;;;5094486;28;20042;-81
2023/08/30 08:54:12;;;;;;;0.60;0.60;;;17.10;99.90;;;;;;5094742;28;20039;-82
2023/08/30 08:56:39;;;;;;;1.23;1.08;;;17.00;99.90;;;;;;5095546;28;20043;-82
2023/08/30 08:59:07;;;;;;;1.38;1.00;;;16.90;99.90;;;;;;5094629;28;20040;-81
2023/08/30 09:01:35;;;;;;;1.08;0.77;;;16.80;99.90;;;;;;5094546;28;20460;-81
2023/08/30 09:04:08;;;;;;;0.90;0.75;;;16.80;99.90;;;;;;5094637;28;20048;-82
2023/08/30 09:06:35;;;;;;;0.45;0.45;;;16.70;99.90;;;;;;5094150;28;20391;-81
2023/08/30 09:09:03;;;;;;;1.67;0.82;;;16.70;99.90;;;;;;5094851;28;20074;-82
2023/08/30 09:11:29;;;;;;;3.00;0.65;;;16.70;99.90;;;;;;5092678;28;20051;-82
2023/08/30 09:13:56;;;;;;;;;;;16.70;99.90;;;;;;5093469;28;20048;-82
2023/08/30 09:16:21;;;;;;;0.55;0.55;;;16.60;99.90;;;;;;5094140;28;19942;-82
2023/08/30 09:19:00;;;;;;;0.60;0.60;;;16.60;99.90;;;;;;5094242;28;20051;-82
2023/08/30 09:21:27;;;;;;;0.60;0.60;;;16.60;99.90;;;;;;5094055;28;20078;-82
2023/08/30 09:24:03;;;;;;;0.65;0.65;;;16.70;99.90;;;;;;5094058;28;20051;-82
2023/08/30 09:26:33;;;;;;;1.07;0.83;;;16.60;99.90;;;;;;5094385;28;20047;-82
2023/08/30 09:29:03;;;;;;;2.63;1.20;;;16.50;99.90;;;;;;5094069;28;20044;-82
2023/08/30 09:31:36;;;;;;;0.60;0.60;;;16.50;99.90;;;;;;5093887;28;20127;-82
2023/08/30 09:34:03;;;;;;;0.82;0.60;;;16.40;99.90;;;;;;5094010;28;20063;-82
2023/08/30 09:36:42;;;;;;;0.80;0.80;;;16.40;99.90;;;;;;5093906;28;20070;-82
2023/08/30 09:39:11;;;;;;;0.50;0.50;;;16.40;99.90;;;;;;5093891;28;20372;-81
2023/08/30 09:41:58;;;;;;;0.80;0.80;;;16.40;99.90;;;;;;5093575;28;20500;-81
2023/08/30 09:44:24;;;;;;;0.50;0.50;;;16.30;99.90;;;;;;5093782;28;20036;-81
2023/08/30 09:46:52;;;;;;;0.88;0.82;;;16.30;99.90;;;;;;5093482;28;20046;-81
2023/08/30 09:49:25;;;;;;;0.50;0.50;;;16.20;99.90;;;;;;5093738;28;20105;-82
2023/08/30 09:51:52;;;;;;;0.40;0.40;;;16.20;99.90;;;;;;5093672;28;20123;-81
2023/08/30 09:54:20;;;;;;;1.20;0.70;;;16.20;99.90;;;;;;5093732;28;20066;-82
2023/08/30 09:56:46;;;;;;;0.70;0.70;;;16.10;99.90;;;;;;5093713;28;20376;-81
2023/08/30 09:59:14;;;;;;;1.08;1.00;;;16.00;99.90;;;;;;5093645;28;20072;-82
2023/08/30 10:01:41;;;;;;;1.00;0.80;;;16.00;99.90;;;;;;5093588;28;20048;-82
2023/08/30 10:04:09;;;;;;;0.68;0.68;;;16.20;99.90;;;;;;5093653;28;20063;-82
2023/08/30 10:06:38;;;;;;;1.08;0.90;;;15.90;99.90;;;;;;5092367;28;20089;-82
2023/08/30 10:09:05;;;;;;;0.75;0.65;;;15.90;99.90;;;;;;5093400;28;20545;-81
2023/08/30 10:11:35;;;;;;;0.40;0.40;;;15.90;99.90;;;;;;5093403;28;20353;-81
2023/08/30 10:14:05;;;;;;;0.50;0.50;;;15.90;99.90;;;;;;5092908;28;20055;-81
2023/08/30 10:16:43;;;;;;;0.57;0.57;;;15.90;99.90;;;;;;5093558;28;20421;-82
2023/08/30 10:19:11;;;;;;;;;;;15.90;99.90;;;;;;5093665;28;20525;-82
2023/08/30 10:21:37;;;;;;;0.50;0.50;;;16.00;99.90;;;;;;5093428;28;19963;-81
2023/08/30 10:24:06;;;;;;;0.63;0.63;;;16.00;99.90;;;;;;5093367;28;20106;-81
2023/08/30 10:26:33;;;;;;;0.60;0.60;;;16.10;99.90;;;;;;5093377;28;20468;-81
2023/08/30 10:29:00;;;;;;;0.70;0.60;;;16.20;99.90;;;;;;5093456;28;20047;-81
2023/08/30 10:31:28;;;;;;;0.73;0.60;;;16.20;99.90;;;;;;5093307;28;20040;-81
2023/08/30 10:33:55;;;;;;;0.55;0.55;;;16.30;99.90;;;;;;5092370;28;20044;-81
2023/08/30 10:36:24;;;;;;;0.63;0.63;;;16.30;99.90;;;;;;5093214;28;20583;-81
2023/08/30 10:38:51;;;;;;;0.63;0.50;;;16.40;99.90;;;;;;5093254;28;20032;-81
2023/08/30 10:41:26;;;;;;;;;;;16.40;99.90;;;;;;5094267;28;20062;-82
2023/08/30 10:43:54;;;;;;;0.85;0.77;;;16.40;99.90;;;;;;5093787;28;19923;-82
2023/08/30 10:46:33;;;;;;;0.80;0.77;;;16.40;99.90;;;;;;5093087;28;20488;-81
2023/08/30 10:49:11;;;;;;;0.47;0.47;;;16.40;99.90;;;;;;5093259;28;20050;-81
2023/08/30 10:51:37;;;;;;;;;;;16.30;99.90;;;;;;5093448;28;20528;-81
2023/08/30 10:54:24;;;;;;;0.30;0.30;;;16.30;99.90;;;;;;5093721;28;20014;-81
2023/08/30 10:57:04;;;;;;;0.60;0.40;;;16.20;99.90;;;;;;5093847;28;20059;-80
2023/08/30 10:59:30;;;;;;;0.88;0.85;;;16.10;99.90;;;;;;5096830;28;20036;-81
2023/08/30 11:01:56;;;;;;;0.63;0.63;;;15.90;99.90;;;;;;5096622;28;20468;-81
2023/08/30 11:04:22;;;;;;;0.45;0.45;;;15.90;99.90;;;;;;5097272;28;20105;-81
2023/08/30 11:06:49;;;;;;;1.08;0.98;;;15.80;99.90;;;;;;5096539;28;20043;-81
2023/08/30 11:09:25;;;;;;;0.55;0.55;;;15.80;99.90;;;;;;5096511;28;20036;-81
2023/08/30 11:11:51;;;;;;;1.20;1.05;;;15.70;99.90;;;;;;5096468;28;20040;-81
2023/08/30 11:14:18;;;;;;;0.40;0.40;;;15.70;99.90;;;;;;5096470;28;20054;-81
2023/08/30 11:16:45;;;;;;;0.90;0.80;;;15.60;99.90;;;;;;5096807;28;20040;-80
2023/08/30 11:19:11;;;;;;;1.48;0.95;;;15.60;99.90;;;;;;5096675;28;20039;-81
2023/08/30 11:21:43;;;;;;;0.90;0.80;;;15.50;99.90;;;;;;5096531;28;20436;-81
2023/08/30 11:24:09;;;;;;;1.13;1.02;;;15.50;99.90;;;;;;5096310;28;20064;-81
2023/08/30 11:26:35;;;;;;;2.20;1.07;;;15.30;99.90;;;;;;5095045;28;20446;-81
2023/08/30 11:29:05;;;;;;;0.93;0.70;;;15.40;99.90;;;;;;5096110;28;20368;-81
2023/08/30 11:31:30;;;;;;;0.60;0.60;;;15.40;99.90;;;;;;5096039;28;20032;-81
2023/08/30 11:33:58;;;;;;;0.80;0.80;;;15.30;99.90;;;;;;5096204;28;20116;-81
2023/08/30 11:36:27;;;;;;;0.95;0.68;;;15.30;99.90;;;;;;5094680;28;20088;-81
2023/08/30 11:38:53;;;;;;;0.52;0.50;;;15.30;99.90;;;;;;5096037;28;20032;-81
2023/08/30 11:41:23;;;;;;;1.23;0.75;;;15.20;99.90;;;;;;5095866;28;20036;-81
2023/08/30 11:43:49;;;;;;;0.95;0.88;;;15.20;99.90;;;;;;5095976;28;20047;-81
2023/08/30 11:46:16;;;;;;;0.68;0.63;;;15.20;99.90;;;;;;5095820;28;20051;-81
2023/08/30 11:48:42;;;;;;;0.55;0.55;;;15.30;99.90;;;;;;5094627;28;20469;-81
2023/08/30 11:51:08;;;;;;;1.25;0.82;;;15.30;99.90;;;;;;5095419;28;20093;-81
2023/08/30 11:53:34;;;;;;;0.50;0.50;;;15.30;99.90;;;;;;5095653;28;20040;-81
2023/08/30 11:56:01;;;;;;;0.70;0.70;;;15.40;99.90;;;;;;5095616;28;20040;-81
2023/08/30 11:58:26;;;;;;;0.88;0.85;;;15.40;99.90;;;;;;5095668;28;20093;-81
2023/08/30 12:00:54;;;;;;;0.93;0.60;;;15.50;99.90;;;;;;5095765;28;20403;-81
2023/08/30 12:03:22;;;;;;;0.80;0.80;;;15.50;99.90;;;;;;5095525;28;20055;-81
2023/08/30 12:05:50;;;;;;;0.50;0.43;;;15.50;99.90;;;;;;5096071;28;20409;-81
2023/08/30 12:08:24;;;;;;;0.73;0.73;;;15.80;99.90;;;;;;5095532;28;20091;-81
2023/08/30 12:10:51;;;;;;;1.50;1.17;;;15.50;99.90;;;;;;5095315;28;20038;-82
2023/08/30 12:13:23;;;;;;;0.73;0.70;;;15.50;99.90;;;;;;5096621;28;20040;-81
2023/08/30 12:15:50;;;;;;;0.95;0.88;;;15.50;99.90;;;;;;5095405;28;20086;-81
2023/08/30 12:18:15;;;;;;;0.80;0.80;;;15.50;99.90;;;;;;5095486;28;20430;-81
2023/08/30 12:20:58;;;;;;;0.83;0.77;;;15.60;99.90;;;;;;5095366;28;20032;-81
2023/08/30 12:23:25;;;;;;;4.30;1.00;;;15.50;99.90;;;;;;5095169;28;20047;-81
2023/08/30 12:26:10;;;;;;;0.50;0.50;;;15.50;99.90;;;;;;5095692;28;20059;-82
2023/08/30 12:28:45;;;;;;;0.70;0.70;;;15.50;99.90;;;;;;5095365;28;20036;-82
2023/08/30 12:31:10;;;;;;;0.70;0.70;;;16.00;99.90;;;;;;5095083;28;20036;-81
2023/08/30 12:33:37;;;;;;;0.63;0.63;;;15.50;99.90;;;;;;5094985;28;20104;-82
2023/08/30 12:36:03;;;;;;;1.33;0.60;;;15.60;99.90;;;;;;5095932;28;20032;-81
2023/08/30 12:38:29;;;;;;;1.00;0.93;;;15.50;99.90;;;;;;5094894;28;20032;-81
2023/08/30 12:40:55;;;;;;;0.63;0.63;;;15.50;99.90;;;;;;5094836;28;20039;-81
2023/08/30 12:43:22;;;;;;;0.75;0.50;;;15.50;99.90;;;;;;5094839;28;20511;-81
2023/08/30 12:45:49;;;;;;;0.32;0.32;;;15.50;99.90;;;;;;5094397;28;20511;-81
2023/08/30 12:48:16;;;;;;;0.45;0.45;;;15.50;99.90;;;;;;5094649;28;20036;-81